»·PEaware :: QXE311 KMRY-KFOT

QXE311 :: KMRY-KFOT

FLIGHT INFORMATION

Flight Status: Arrived
Operator:
Horizon Air
More flights by this operator :: More flights under this callsign
Pilot: Dheeraj L. (18560)
Aircraft: DEHAVILLAND DASH 8 400
(DH8D)
More flights by this aircraft type
Origin: KMRY Monterey Peninsula
United States
Destination: KFOT Rohnerville
United States
More flights between these airports :: More routes between these airports
Route: MRY4 SNS J88 PYE J143 ENI V607 PLYAT
File this flight plan on PilotEdge
Remarks:
Altitude:
(Current/Filed)
24,000ft
Speed:
(Current/Filed)
285kts
Departed: 08-Jul-18 11:04 AM
Arrived: 08-Jul-18 12:05 PM
Distance/Time
Traveled:
261nm/1:01
Distance/Time
To Go:
Arrived

Flight Plot

Page will automatically refresh every two minutes.

Flight plan parsing failed; only flown route is shown


Map Options




Map Legend


Flown Route
Filed Route
Departure Airport
Arrival Airport
Navaid (VOR, NDB)
Fix

Horizontal Profiles

Position Reports

Time Latitude Longitude Heading Altitude Ground
Speed
08-Jul-18 10:22 36.587932 -121.850827 238 212ft 0kts
08-Jul-18 10:22 36.587932 -121.850827 238 212ft 0kts
08-Jul-18 10:23 36.587932 -121.850827 238 212ft 0kts
08-Jul-18 10:29 36.587933 -121.850827 238 212ft 0kts
08-Jul-18 10:30 36.587933 -121.850827 238 212ft 0kts
08-Jul-18 10:31 36.587933 -121.850827 238 212ft 0kts
08-Jul-18 10:32 36.587933 -121.850827 238 212ft 0kts
08-Jul-18 10:33 36.587933 -121.850827 238 212ft 0kts
08-Jul-18 10:34 36.587933 -121.850827 238 212ft 0kts
08-Jul-18 10:35 36.587933 -121.850827 238 212ft 0kts
08-Jul-18 10:36 36.587933 -121.850827 238 212ft 0kts
08-Jul-18 10:38 36.587933 -121.850827 238 212ft 0kts
08-Jul-18 10:39 36.587933 -121.850827 238 212ft 0kts
08-Jul-18 10:40 36.587933 -121.850827 238 212ft 0kts
08-Jul-18 10:41 36.587933 -121.850827 238 212ft 0kts
08-Jul-18 10:42 36.587933 -121.850827 238 212ft 0kts
08-Jul-18 10:43 36.587933 -121.850827 238 212ft 0kts
08-Jul-18 10:44 36.587933 -121.850827 238 212ft 0kts
08-Jul-18 10:45 36.587933 -121.850827 238 212ft 0kts
08-Jul-18 10:46 36.587933 -121.850827 238 212ft 0kts
08-Jul-18 10:47 36.587933 -121.850827 238 212ft 0kts
08-Jul-18 10:48 36.587933 -121.850827 238 212ft 0kts
08-Jul-18 10:49 36.587933 -121.850827 238 212ft 0kts
08-Jul-18 10:50 36.587933 -121.850827 238 212ft 0kts
08-Jul-18 10:51 36.587933 -121.850827 238 212ft 0kts
08-Jul-18 10:52 36.587933 -121.850827 238 212ft 0kts
08-Jul-18 10:53 36.587933 -121.850828 238 212ft 0kts
08-Jul-18 10:54 36.587933 -121.850828 238 212ft 0kts
08-Jul-18 10:55 36.587933 -121.850828 238 212ft 0kts
08-Jul-18 10:56 36.587933 -121.850828 238 212ft 0kts
08-Jul-18 10:57 36.587933 -121.850828 238 212ft 0kts
08-Jul-18 10:58 36.587933 -121.850828 238 212ft 0kts
08-Jul-18 10:59 36.587933 -121.850828 238 212ft 0kts
08-Jul-18 11:00 36.587912 -121.850878 245 212ft 0kts
08-Jul-18 11:01 36.587381 -121.847929 112 212ft 19kts
08-Jul-18 11:02 36.586081 -121.844542 112 212ft 15kts
08-Jul-18 11:03 36.583733 -121.837619 112 212ft 22kts
08-Jul-18 11:04 36.582875 -121.834932 99 212ft 3kts
08-Jul-18 11:05 36.584449 -121.836838 291 212ft 70kts
08-Jul-18 11:06 36.599622 -121.874448 323 2148ft 125kts
08-Jul-18 11:07 36.633769 -121.892398 340 4489ft 143kts
08-Jul-18 11:08 36.672772 -121.912576 341 6828ft 148kts
08-Jul-18 11:09 36.716794 -121.906802 13 8798ft 156kts
08-Jul-18 11:10 36.764249 -121.893891 9 10418ft 182kts
08-Jul-18 11:11 36.817046 -121.881801 7 12257ft 190kts
08-Jul-18 11:12 36.872201 -121.871131 2 14006ft 201kts
08-Jul-18 11:13 36.930188 -121.863775 354 15785ft 204kts
08-Jul-18 11:14 36.985743 -121.884664 323 17469ft 202kts
08-Jul-18 11:15 37.031001 -121.931345 302 19066ft 199kts
08-Jul-18 11:16 37.079646 -121.979554 317 19898ft 248kts
08-Jul-18 11:17 37.138992 -122.031610 318 20498ft 278kts
08-Jul-18 11:18 37.202027 -122.086801 318 21317ft 283kts
08-Jul-18 11:19 37.266909 -122.143582 317 22106ft 286kts
08-Jul-18 11:20 37.333983 -122.202755 318 22330ft 303kts
08-Jul-18 11:21 37.401128 -122.261767 317 23219ft 293kts
08-Jul-18 11:22 37.468100 -122.320700 317 23775ft 295kts
08-Jul-18 11:23 37.535981 -122.380942 317 24088ft 304kts
08-Jul-18 11:24 37.607302 -122.444598 317 24112ft 321kts
08-Jul-18 11:25 37.681120 -122.510482 318 24114ft 332kts
08-Jul-18 11:26 37.756973 -122.578223 318 24097ft 338kts
08-Jul-18 11:27 37.833597 -122.646735 318 24110ft 341kts
08-Jul-18 11:28 37.911057 -122.716146 318 24095ft 344kts
08-Jul-18 11:29 37.987837 -122.785092 318 24085ft 345kts
08-Jul-18 11:30 38.065855 -122.855076 317 24083ft 345kts
08-Jul-18 11:31 38.118977 -122.946377 298 24095ft 330kts
08-Jul-18 11:32 38.205351 -122.993925 340 24076ft 359kts
08-Jul-18 11:33 38.301308 -123.024852 339 24073ft 358kts
08-Jul-18 11:34 38.396070 -123.055893 339 24072ft 358kts
08-Jul-18 11:35 38.490715 -123.087066 339 24070ft 357kts
08-Jul-18 11:36 38.585748 -123.118463 339 24056ft 357kts
08-Jul-18 11:37 38.681888 -123.150409 339 22938ft 364kts
08-Jul-18 11:38 38.779101 -123.182872 340 21679ft 370kts
08-Jul-18 11:39 38.877857 -123.215869 340 20386ft 373kts
08-Jul-18 11:40 38.975797 -123.248497 340 19098ft 362kts
08-Jul-18 11:41 39.072286 -123.280716 340 18167ft 366kts
08-Jul-18 11:42 39.170022 -123.311710 341 18084ft 363kts
08-Jul-18 11:43 39.265507 -123.342085 340 18083ft 360kts
08-Jul-18 11:44 39.361501 -123.373125 340 18084ft 358kts
08-Jul-18 11:45 39.456461 -123.403768 340 18087ft 357kts
08-Jul-18 11:46 39.552187 -123.434801 340 18099ft 356kts
08-Jul-18 11:47 39.647403 -123.465813 340 18116ft 355kts
08-Jul-18 11:48 39.742939 -123.496908 341 17975ft 358kts
08-Jul-18 11:49 39.835581 -123.527039 341 16656ft 314kts
08-Jul-18 11:50 39.918834 -123.554611 340 15433ft 311kts
08-Jul-18 11:51 40.002578 -123.582206 341 14178ft 307kts
08-Jul-18 11:52 40.082938 -123.608575 341 12968ft 284kts
08-Jul-18 11:53 40.156120 -123.632722 341 11858ft 262kts
08-Jul-18 11:54 40.223606 -123.655390 342 10691ft 244kts
08-Jul-18 11:55 40.287968 -123.676992 344 9449ft 227kts
08-Jul-18 11:56 40.342665 -123.702889 318 8384ft 195kts
08-Jul-18 11:57 40.382999 -123.755485 315 7599ft 203kts
08-Jul-18 11:58 40.420893 -123.807787 311 6077ft 194kts
08-Jul-18 11:59 40.453319 -123.856678 309 5030ft 166kts
08-Jul-18 12:00 40.475503 -123.909310 296 3941ft 160kts
08-Jul-18 12:01 40.492715 -123.959996 292 3440ft 139kts
08-Jul-18 12:02 40.508764 -124.008088 298 3111ft 139kts
08-Jul-18 12:03 40.521818 -124.056854 293 2694ft 138kts
08-Jul-18 12:04 40.535354 -124.100814 301 1069ft 108kts
08-Jul-18 12:05 40.553328 -124.131567 306 363ft 73kts
08-Jul-18 12:06 40.557436 -124.138075 39 362ft 5kts
08-Jul-18 12:07 40.555534 -124.134202 128 363ft 19kts
08-Jul-18 12:08 40.554861 -124.133034 126 363ft 3kts
08-Jul-18 12:09 40.552386 -124.128789 128 363ft 8kts
08-Jul-18 12:10 40.551349 -124.126976 109 363ft 2kts
08-Jul-18 12:11 40.551207 -124.126405 203 363ft 1kts
08-Jul-18 12:12 40.551204 -124.126409 218 362ft 0kts
08-Jul-18 12:13 40.551204 -124.126409 218 362ft 0kts
08-Jul-18 12:14 40.551204 -124.126409 218 362ft 0kts
08-Jul-18 12:15 40.551204 -124.126409 218 362ft 0kts
08-Jul-18 12:16 40.551204 -124.126409 218 362ft 0kts
08-Jul-18 12:17 40.551204 -124.126409 218 362ft 0kts
08-Jul-18 12:18 40.551204 -124.126409 218 362ft 0kts
08-Jul-18 12:19 40.551204 -124.126409 218 362ft 0kts
08-Jul-18 12:20 40.551204 -124.126409 218 362ft 0kts

Navigation Log

Ident Type
Flight plan parsing failed, navigation log unavailable